sensor_id;sensor_type;location;lat;lon;timestamp;temperature;humidity
18575;DHT22;9417;16.484;102.872;2024-01-06T00:01:47;19.50;90.80
18575;DHT22;9417;16.484;102.872;2024-01-06T00:03:54;19.50;91.40
18575;DHT22;9417;16.484;102.872;2024-01-06T00:06:01;19.50;91.70
18575;DHT22;9417;16.484;102.872;2024-01-06T00:08:09;19.50;91.90
18575;DHT22;9417;16.484;102.872;2024-01-06T00:10:17;19.60;92.00
18575;DHT22;9417;16.484;102.872;2024-01-06T00:12:26;19.70;92.00
18575;DHT22;9417;16.484;102.872;2024-01-06T00:14:33;19.70;92.10
18575;DHT22;9417;16.484;102.872;2024-01-06T00:16:41;19.60;92.20
18575;DHT22;9417;16.484;102.872;2024-01-06T00:18:48;19.60;92.40
18575;DHT22;9417;16.484;102.872;2024-01-06T00:20:56;19.60;92.60
18575;DHT22;9417;16.484;102.872;2024-01-06T00:23:01;19.50;93.00
18575;DHT22;9417;16.484;102.872;2024-01-06T00:25:09;19.50;93.70
18575;DHT22;9417;16.484;102.872;2024-01-06T00:27:16;19.40;94.00
18575;DHT22;9417;16.484;102.872;2024-01-06T00:29:25;19.50;93.90
18575;DHT22;9417;16.484;102.872;2024-01-06T00:31:33;19.50;93.90
18575;DHT22;9417;16.484;102.872;2024-01-06T00:33:40;19.60;93.60
18575;DHT22;9417;16.484;102.872;2024-01-06T00:35:48;19.70;93.20
18575;DHT22;9417;16.484;102.872;2024-01-06T00:37:56;19.70;93.30
18575;DHT22;9417;16.484;102.872;2024-01-06T00:40:06;19.80;93.20
18575;DHT22;9417;16.484;102.872;2024-01-06T00:42:13;19.80;92.90
18575;DHT22;9417;16.484;102.872;2024-01-06T00:44:20;19.90;92.90
18575;DHT22;9417;16.484;102.872;2024-01-06T00:46:29;19.90;92.60
18575;DHT22;9417;16.484;102.872;2024-01-06T00:48:37;20.00;92.80
18575;DHT22;9417;16.484;102.872;2024-01-06T00:50:45;20.10;92.90
18575;DHT22;9417;16.484;102.872;2024-01-06T00:52:52;20.10;92.50
18575;DHT22;9417;16.484;102.872;2024-01-06T00:54:59;20.20;91.80
18575;DHT22;9417;16.484;102.872;2024-01-06T00:57:06;20.10;91.50
18575;DHT22;9417;16.484;102.872;2024-01-06T00:59:13;20.20;91.50
18575;DHT22;9417;16.484;102.872;2024-01-06T01:01:20;20.30;91.30
18575;DHT22;9417;16.484;102.872;2024-01-06T01:03:30;20.40;91.20
18575;DHT22;9417;16.484;102.872;2024-01-06T01:05:37;20.50;90.70
18575;DHT22;9417;16.484;102.872;2024-01-06T01:07:44;20.50;90.10
18575;DHT22;9417;16.484;102.872;2024-01-06T01:09:51;20.60;89.60
18575;DHT22;9417;16.484;102.872;2024-01-06T01:11:56;20.60;89.00
18575;DHT22;9417;16.484;102.872;2024-01-06T01:14:04;20.70;88.60
18575;DHT22;9417;16.484;102.872;2024-01-06T01:16:11;20.70;88.50
18575;DHT22;9417;16.484;102.872;2024-01-06T01:18:18;20.80;88.30
18575;DHT22;9417;16.484;102.872;2024-01-06T01:20:28;20.90;88.00
18575;DHT22;9417;16.484;102.872;2024-01-06T01:22:35;20.90;87.30
18575;DHT22;9417;16.484;102.872;2024-01-06T01:24:43;21.00;87.60
18575;DHT22;9417;16.484;102.872;2024-01-06T01:26:50;21.10;86.90
18575;DHT22;9417;16.484;102.872;2024-01-06T01:28:58;21.20;86.10
18575;DHT22;9417;16.484;102.872;2024-01-06T01:31:05;21.20;84.70
18575;DHT22;9417;16.484;102.872;2024-01-06T01:33:13;21.30;84.50
18575;DHT22;9417;16.484;102.872;2024-01-06T01:35:21;21.30;84.20
18575;DHT22;9417;16.484;102.872;2024-01-06T01:37:30;21.40;84.30
18575;DHT22;9417;16.484;102.872;2024-01-06T01:39:38;21.50;84.00
18575;DHT22;9417;16.484;102.872;2024-01-06T01:41:46;21.50;84.00
18575;DHT22;9417;16.484;102.872;2024-01-06T01:43:53;21.60;83.90
18575;DHT22;9417;16.484;102.872;2024-01-06T01:46:03;21.60;83.40
18575;DHT22;9417;16.484;102.872;2024-01-06T01:48:10;21.60;83.30
18575;DHT22;9417;16.484;102.872;2024-01-06T01:50:18;21.70;83.30
18575;DHT22;9417;16.484;102.872;2024-01-06T01:52:29;21.80;83.50
18575;DHT22;9417;16.484;102.872;2024-01-06T01:54:37;21.80;82.80
18575;DHT22;9417;16.484;102.872;2024-01-06T01:56:44;21.90;82.30
18575;DHT22;9417;16.484;102.872;2024-01-06T01:58:51;22.00;82.10
18575;DHT22;9417;16.484;102.872;2024-01-06T02:00:59;22.10;81.50
18575;DHT22;9417;16.484;102.872;2024-01-06T02:03:08;22.20;81.30
18575;DHT22;9417;16.484;102.872;2024-01-06T02:05:17;22.20;81.10
18575;DHT22;9417;16.484;102.872;2024-01-06T02:07:24;22.30;80.90
18575;DHT22;9417;16.484;102.872;2024-01-06T02:09:33;22.40;79.70
18575;DHT22;9417;16.484;102.872;2024-01-06T02:11:40;22.40;79.80
18575;DHT22;9417;16.484;102.872;2024-01-06T02:13:47;22.50;79.80
18575;DHT22;9417;16.484;102.872;2024-01-06T02:15:55;22.60;79.90
18575;DHT22;9417;16.484;102.872;2024-01-06T02:18:02;22.70;79.30
18575;DHT22;9417;16.484;102.872;2024-01-06T02:20:09;22.70;78.70
18575;DHT22;9417;16.484;102.872;2024-01-06T02:22:19;22.80;77.80
18575;DHT22;9417;16.484;102.872;2024-01-06T02:24:26;22.90;76.80
18575;DHT22;9417;16.484;102.872;2024-01-06T02:26:34;23.00;76.30
18575;DHT22;9417;16.484;102.872;2024-01-06T02:28:40;23.00;76.00
18575;DHT22;9417;16.484;102.872;2024-01-06T02:30:50;23.10;76.50
18575;DHT22;9417;16.484;102.872;2024-01-06T02:32:57;23.20;76.40
18575;DHT22;9417;16.484;102.872;2024-01-06T02:35:04;23.30;75.60
18575;DHT22;9417;16.484;102.872;2024-01-06T02:37:12;23.30;75.30
18575;DHT22;9417;16.484;102.872;2024-01-06T02:39:20;23.40;74.80
18575;DHT22;9417;16.484;102.872;2024-01-06T02:41:28;23.40;74.90
18575;DHT22;9417;16.484;102.872;2024-01-06T02:43:35;23.50;75.10
18575;DHT22;9417;16.484;102.872;2024-01-06T02:45:42;23.60;74.10
18575;DHT22;9417;16.484;102.872;2024-01-06T02:47:51;23.60;74.80
18575;DHT22;9417;16.484;102.872;2024-01-06T02:50:00;23.70;75.10
18575;DHT22;9417;16.484;102.872;2024-01-06T02:52:08;23.70;74.10
18575;DHT22;9417;16.484;102.872;2024-01-06T02:54:15;23.80;73.20
18575;DHT22;9417;16.484;102.872;2024-01-06T02:56:24;23.80;74.20
18575;DHT22;9417;16.484;102.872;2024-01-06T02:58:31;23.90;73.30
18575;DHT22;9417;16.484;102.872;2024-01-06T03:00:38;23.90;72.80
18575;DHT22;9417;16.484;102.872;2024-01-06T03:02:46;24.00;73.80
18575;DHT22;9417;16.484;102.872;2024-01-06T03:04:53;24.10;72.90
18575;DHT22;9417;16.484;102.872;2024-01-06T03:07:00;24.10;72.30
18575;DHT22;9417;16.484;102.872;2024-01-06T03:09:07;24.20;72.10
18575;DHT22;9417;16.484;102.872;2024-01-06T03:11:15;24.30;72.20
18575;DHT22;9417;16.484;102.872;2024-01-06T03:13:24;24.40;71.90
18575;DHT22;9417;16.484;102.872;2024-01-06T03:15:31;24.40;71.30
18575;DHT22;9417;16.484;102.872;2024-01-06T03:17:38;24.60;71.30
18575;DHT22;9417;16.484;102.872;2024-01-06T03:19:46;24.60;71.40
18575;DHT22;9417;16.484;102.872;2024-01-06T03:21:53;24.70;70.60
18575;DHT22;9417;16.484;102.872;2024-01-06T03:24:01;24.70;70.30
18575;DHT22;9417;16.484;102.872;2024-01-06T03:26:08;24.80;69.40
18575;DHT22;9417;16.484;102.872;2024-01-06T03:28:14;24.80;69.90
18575;DHT22;9417;16.484;102.872;2024-01-06T03:30:27;24.90;70.60
18575;DHT22;9417;16.484;102.872;2024-01-06T03:32:34;24.90;69.80
18575;DHT22;9417;16.484;102.872;2024-01-06T03:34:41;25.00;69.40
18575;DHT22;9417;16.484;102.872;2024-01-06T03:36:49;25.10;69.20
18575;DHT22;9417;16.484;102.872;2024-01-06T03:38:56;25.20;68.80
18575;DHT22;9417;16.484;102.872;2024-01-06T03:41:04;25.20;68.80
18575;DHT22;9417;16.484;102.872;2024-01-06T03:43:11;25.40;68.40
18575;DHT22;9417;16.484;102.872;2024-01-06T03:45:19;25.40;67.70
18575;DHT22;9417;16.484;102.872;2024-01-06T03:47:28;25.40;67.70
18575;DHT22;9417;16.484;102.872;2024-01-06T03:49:35;25.40;67.40
18575;DHT22;9417;16.484;102.872;2024-01-06T03:51:43;25.50;67.50
18575;DHT22;9417;16.484;102.872;2024-01-06T03:53:49;25.60;67.60
18575;DHT22;9417;16.484;102.872;2024-01-06T03:55:56;25.60;67.30
18575;DHT22;9417;16.484;102.872;2024-01-06T03:58:04;25.70;67.00
18575;DHT22;9417;16.484;102.872;2024-01-06T04:00:12;25.80;67.30
18575;DHT22;9417;16.484;102.872;2024-01-06T04:02:19;25.90;67.30
18575;DHT22;9417;16.484;102.872;2024-01-06T04:04:28;25.90;67.30
18575;DHT22;9417;16.484;102.872;2024-01-06T04:06:35;26.00;67.10
18575;DHT22;9417;16.484;102.872;2024-01-06T04:08:43;26.10;66.60
18575;DHT22;9417;16.484;102.872;2024-01-06T04:10:51;26.10;66.10
18575;DHT22;9417;16.484;102.872;2024-01-06T04:12:58;26.20;64.80
18575;DHT22;9417;16.484;102.872;2024-01-06T04:15:06;26.30;65.80
18575;DHT22;9417;16.484;102.872;2024-01-06T04:17:13;26.40;65.70
18575;DHT22;9417;16.484;102.872;2024-01-06T04:19:20;26.50;64.90
18575;DHT22;9417;16.484;102.872;2024-01-06T04:21:29;26.60;64.70
18575;DHT22;9417;16.484;102.872;2024-01-06T04:23:37;26.60;63.80
18575;DHT22;9417;16.484;102.872;2024-01-06T04:25:44;26.80;64.20
18575;DHT22;9417;16.484;102.872;2024-01-06T04:27:52;26.80;63.80
18575;DHT22;9417;16.484;102.872;2024-01-06T04:29:59;27.00;63.60
18575;DHT22;9417;16.484;102.872;2024-01-06T04:32:07;27.10;63.70
18575;DHT22;9417;16.484;102.872;2024-01-06T04:34:14;27.20;63.20
18575;DHT22;9417;16.484;102.872;2024-01-06T04:36:22;27.20;62.90
18575;DHT22;9417;16.484;102.872;2024-01-06T04:38:30;27.20;61.60
18575;DHT22;9417;16.484;102.872;2024-01-06T04:40:38;27.20;61.40
18575;DHT22;9417;16.484;102.872;2024-01-06T04:42:44;27.30;62.10
18575;DHT22;9417;16.484;102.872;2024-01-06T04:44:52;27.40;61.80
18575;DHT22;9417;16.484;102.872;2024-01-06T04:46:59;27.50;61.50
18575;DHT22;9417;16.484;102.872;2024-01-06T04:49:07;27.60;61.80
18575;DHT22;9417;16.484;102.872;2024-01-06T04:51:14;27.60;61.50
18575;DHT22;9417;16.484;102.872;2024-01-06T04:53:22;27.60;61.70
18575;DHT22;9417;16.484;102.872;2024-01-06T04:55:29;27.70;61.80
18575;DHT22;9417;16.484;102.872;2024-01-06T04:57:38;27.80;61.50
18575;DHT22;9417;16.484;102.872;2024-01-06T04:59:46;27.90;60.80
18575;DHT22;9417;16.484;102.872;2024-01-06T05:01:54;28.00;60.80
18575;DHT22;9417;16.484;102.872;2024-01-06T05:04:01;28.10;60.50
18575;DHT22;9417;16.484;102.872;2024-01-06T05:06:09;28.20;60.50
18575;DHT22;9417;16.484;102.872;2024-01-06T05:08:16;28.20;60.10
18575;DHT22;9417;16.484;102.872;2024-01-06T05:10:24;28.30;59.20
18575;DHT22;9417;16.484;102.872;2024-01-06T05:12:33;28.30;58.70
18575;DHT22;9417;16.484;102.872;2024-01-06T05:14:41;28.30;60.10
18575;DHT22;9417;16.484;102.872;2024-01-06T05:16:48;28.40;59.40
18575;DHT22;9417;16.484;102.872;2024-01-06T05:18:55;28.40;59.20
18575;DHT22;9417;16.484;102.872;2024-01-06T05:21:03;28.50;58.30
18575;DHT22;9417;16.484;102.872;2024-01-06T05:23:10;28.50;57.90
18575;DHT22;9417;16.484;102.872;2024-01-06T05:25:18;28.50;58.20
18575;DHT22;9417;16.484;102.872;2024-01-06T05:27:25;28.60;58.20
18575;DHT22;9417;16.484;102.872;2024-01-06T05:29:33;28.60;58.40
18575;DHT22;9417;16.484;102.872;2024-01-06T05:31:40;28.60;57.10
18575;DHT22;9417;16.484;102.872;2024-01-06T05:33:48;28.70;57.50
18575;DHT22;9417;16.484;102.872;2024-01-06T05:35:55;28.80;57.60
18575;DHT22;9417;16.484;102.872;2024-01-06T05:38:02;28.90;57.00
18575;DHT22;9417;16.484;102.872;2024-01-06T05:40:10;28.90;56.70
18575;DHT22;9417;16.484;102.872;2024-01-06T05:42:17;29.00;56.90
18575;DHT22;9417;16.484;102.872;2024-01-06T05:44:25;29.00;56.60
18575;DHT22;9417;16.484;102.872;2024-01-06T05:46:34;29.00;55.30
18575;DHT22;9417;16.484;102.872;2024-01-06T05:48:42;28.90;54.40
18575;DHT22;9417;16.484;102.872;2024-01-06T05:50:50;28.80;54.90
18575;DHT22;9417;16.484;102.872;2024-01-06T05:52:57;28.70;54.40
18575;DHT22;9417;16.484;102.872;2024-01-06T05:55:05;28.70;56.60
18575;DHT22;9417;16.484;102.872;2024-01-06T05:57:11;28.70;56.20
18575;DHT22;9417;16.484;102.872;2024-01-06T05:59:18;28.80;55.10
18575;DHT22;9417;16.484;102.872;2024-01-06T06:01:25;28.80;54.90
18575;DHT22;9417;16.484;102.872;2024-01-06T06:03:34;28.80;54.20
18575;DHT22;9417;16.484;102.872;2024-01-06T06:05:41;28.90;54.40
18575;DHT22;9417;16.484;102.872;2024-01-06T06:07:50;29.00;54.30
18575;DHT22;9417;16.484;102.872;2024-01-06T06:09:57;29.10;54.70
18575;DHT22;9417;16.484;102.872;2024-01-06T06:12:08;29.10;53.70
18575;DHT22;9417;16.484;102.872;2024-01-06T06:14:15;29.10;53.70
18575;DHT22;9417;16.484;102.872;2024-01-06T06:16:23;29.10;53.20
18575;DHT22;9417;16.484;102.872;2024-01-06T06:18:30;29.00;54.00
18575;DHT22;9417;16.484;102.872;2024-01-06T06:20:40;29.00;54.00
18575;DHT22;9417;16.484;102.872;2024-01-06T06:22:48;29.00;54.60
18575;DHT22;9417;16.484;102.872;2024-01-06T06:24:56;29.10;54.40
18575;DHT22;9417;16.484;102.872;2024-01-06T06:27:03;29.20;53.50
18575;DHT22;9417;16.484;102.872;2024-01-06T06:29:11;29.30;53.40
18575;DHT22;9417;16.484;102.872;2024-01-06T06:31:18;29.30;53.50
18575;DHT22;9417;16.484;102.872;2024-01-06T06:33:26;29.30;52.50
18575;DHT22;9417;16.484;102.872;2024-01-06T06:35:33;29.40;52.80
18575;DHT22;9417;16.484;102.872;2024-01-06T06:37:43;29.30;52.30
18575;DHT22;9417;16.484;102.872;2024-01-06T06:39:50;29.40;52.40
18575;DHT22;9417;16.484;102.872;2024-01-06T06:41:58;29.40;52.60
18575;DHT22;9417;16.484;102.872;2024-01-06T06:44:05;29.50;52.30
18575;DHT22;9417;16.484;102.872;2024-01-06T06:46:13;29.60;52.20
18575;DHT22;9417;16.484;102.872;2024-01-06T06:48:20;29.70;52.70
18575;DHT22;9417;16.484;102.872;2024-01-06T06:50:27;29.70;52.50
18575;DHT22;9417;16.484;102.872;2024-01-06T06:52:34;29.80;52.70
18575;DHT22;9417;16.484;102.872;2024-01-06T06:54:44;29.80;51.80
18575;DHT22;9417;16.484;102.872;2024-01-06T06:56:51;29.80;51.70
18575;DHT22;9417;16.484;102.872;2024-01-06T06:58:58;29.90;51.40
18575;DHT22;9417;16.484;102.872;2024-01-06T07:01:06;29.80;51.90
18575;DHT22;9417;16.484;102.872;2024-01-06T07:03:14;29.90;51.60
18575;DHT22;9417;16.484;102.872;2024-01-06T07:05:21;29.90;50.60
18575;DHT22;9417;16.484;102.872;2024-01-06T07:07:29;30.00;51.40
18575;DHT22;9417;16.484;102.872;2024-01-06T07:09:36;30.00;51.70
18575;DHT22;9417;16.484;102.872;2024-01-06T07:11:45;30.00;52.60
18575;DHT22;9417;16.484;102.872;2024-01-06T07:13:52;30.00;52.50
18575;DHT22;9417;16.484;102.872;2024-01-06T07:15:58;30.10;51.70
18575;DHT22;9417;16.484;102.872;2024-01-06T07:18:21;30.10;50.60
18575;DHT22;9417;16.484;102.872;2024-01-06T07:20:30;29.90;49.80
18575;DHT22;9417;16.484;102.872;2024-01-06T07:22:37;29.90;51.40
18575;DHT22;9417;16.484;102.872;2024-01-06T07:24:45;29.80;50.80
18575;DHT22;9417;16.484;102.872;2024-01-06T07:26:55;29.80;51.20
18575;DHT22;9417;16.484;102.872;2024-01-06T07:29:02;29.80;50.00
18575;DHT22;9417;16.484;102.872;2024-01-06T07:31:09;29.70;50.40
18575;DHT22;9417;16.484;102.872;2024-01-06T07:33:17;29.80;50.00
18575;DHT22;9417;16.484;102.872;2024-01-06T07:35:26;29.80;50.20
18575;DHT22;9417;16.484;102.872;2024-01-06T07:37:33;29.80;49.70
18575;DHT22;9417;16.484;102.872;2024-01-06T07:39:40;29.80;49.30
18575;DHT22;9417;16.484;102.872;2024-01-06T07:41:48;29.70;49.00
18575;DHT22;9417;16.484;102.872;2024-01-06T07:43:57;29.70;49.60
18575;DHT22;9417;16.484;102.872;2024-01-06T07:46:06;29.80;49.30
18575;DHT22;9417;16.484;102.872;2024-01-06T07:48:14;29.80;49.40
18575;DHT22;9417;16.484;102.872;2024-01-06T07:50:21;29.80;49.50
18575;DHT22;9417;16.484;102.872;2024-01-06T07:52:29;29.90;50.00
18575;DHT22;9417;16.484;102.872;2024-01-06T07:54:37;29.90;49.90
18575;DHT22;9417;16.484;102.872;2024-01-06T07:56:45;29.80;49.50
18575;DHT22;9417;16.484;102.872;2024-01-06T07:58:51;29.80;49.30
18575;DHT22;9417;16.484;102.872;2024-01-06T08:01:00;29.80;49.80
18575;DHT22;9417;16.484;102.872;2024-01-06T08:03:08;29.90;50.60
18575;DHT22;9417;16.484;102.872;2024-01-06T08:05:16;29.90;49.70
18575;DHT22;9417;16.484;102.872;2024-01-06T08:07:24;29.90;49.90
18575;DHT22;9417;16.484;102.872;2024-01-06T08:09:31;29.90;50.00
18575;DHT22;9417;16.484;102.872;2024-01-06T08:11:38;29.90;50.60
18575;DHT22;9417;16.484;102.872;2024-01-06T08:13:47;29.90;50.50
18575;DHT22;9417;16.484;102.872;2024-01-06T08:15:55;29.90;50.60
18575;DHT22;9417;16.484;102.872;2024-01-06T08:18:04;29.90;50.90
18575;DHT22;9417;16.484;102.872;2024-01-06T08:20:12;29.90;50.90
18575;DHT22;9417;16.484;102.872;2024-01-06T08:22:19;29.80;50.70
18575;DHT22;9417;16.484;102.872;2024-01-06T08:24:26;29.80;51.20
18575;DHT22;9417;16.484;102.872;2024-01-06T08:26:34;29.80;51.10
18575;DHT22;9417;16.484;102.872;2024-01-06T08:28:41;29.80;51.10
18575;DHT22;9417;16.484;102.872;2024-01-06T08:30:48;29.80;50.70
18575;DHT22;9417;16.484;102.872;2024-01-06T08:32:55;29.80;51.20
18575;DHT22;9417;16.484;102.872;2024-01-06T08:35:07;29.80;51.30
18575;DHT22;9417;16.484;102.872;2024-01-06T08:37:15;29.80;50.40
18575;DHT22;9417;16.484;102.872;2024-01-06T08:39:22;29.70;49.70
18575;DHT22;9417;16.484;102.872;2024-01-06T08:41:30;29.60;50.20
18575;DHT22;9417;16.484;102.872;2024-01-06T08:43:37;29.70;51.20
18575;DHT22;9417;16.484;102.872;2024-01-06T08:45:44;29.60;51.20
18575;DHT22;9417;16.484;102.872;2024-01-06T08:47:52;29.60;50.80
18575;DHT22;9417;16.484;102.872;2024-01-06T08:49:59;29.60;50.40
18575;DHT22;9417;16.484;102.872;2024-01-06T08:52:08;29.60;50.30
18575;DHT22;9417;16.484;102.872;2024-01-06T08:54:16;29.60;51.00
18575;DHT22;9417;16.484;102.872;2024-01-06T08:56:23;29.60;50.60
18575;DHT22;9417;16.484;102.872;2024-01-06T08:58:30;29.60;50.60
18575;DHT22;9417;16.484;102.872;2024-01-06T09:00:37;29.70;51.00
18575;DHT22;9417;16.484;102.872;2024-01-06T09:02:44;29.70;51.50
18575;DHT22;9417;16.484;102.872;2024-01-06T09:04:51;29.70;51.80
18575;DHT22;9417;16.484;102.872;2024-01-06T09:06:59;29.60;51.50
18575;DHT22;9417;16.484;102.872;2024-01-06T09:09:08;29.60;51.60
18575;DHT22;9417;16.484;102.872;2024-01-06T09:11:15;29.50;50.70
18575;DHT22;9417;16.484;102.872;2024-01-06T09:13:23;29.50;51.50
18575;DHT22;9417;16.484;102.872;2024-01-06T09:15:31;29.50;50.50
18575;DHT22;9417;16.484;102.872;2024-01-06T09:17:41;29.50;50.30
18575;DHT22;9417;16.484;102.872;2024-01-06T09:19:48;29.50;50.70
18575;DHT22;9417;16.484;102.872;2024-01-06T09:21:58;29.40;50.30
18575;DHT22;9417;16.484;102.872;2024-01-06T09:24:08;29.40;50.70
18575;DHT22;9417;16.484;102.872;2024-01-06T09:26:15;29.40;50.60
18575;DHT22;9417;16.484;102.872;2024-01-06T09:28:22;29.40;51.30
18575;DHT22;9417;16.484;102.872;2024-01-06T09:30:30;29.40;51.50
18575;DHT22;9417;16.484;102.872;2024-01-06T09:32:37;29.30;51.60
18575;DHT22;9417;16.484;102.872;2024-01-06T09:34:45;29.30;50.90
18575;DHT22;9417;16.484;102.872;2024-01-06T09:36:51;29.30;51.10
18575;DHT22;9417;16.484;102.872;2024-01-06T09:38:59;29.30;51.20
18575;DHT22;9417;16.484;102.872;2024-01-06T09:41:08;29.30;51.30
18575;DHT22;9417;16.484;102.872;2024-01-06T09:43:16;29.30;51.30
18575;DHT22;9417;16.484;102.872;2024-01-06T09:45:23;29.20;51.50
18575;DHT22;9417;16.484;102.872;2024-01-06T09:47:34;29.20;51.10
18575;DHT22;9417;16.484;102.872;2024-01-06T09:49:45;29.20;50.80
18575;DHT22;9417;16.484;102.872;2024-01-06T09:51:58;29.20;51.30
18575;DHT22;9417;16.484;102.872;2024-01-06T09:54:08;29.20;51.50
18575;DHT22;9417;16.484;102.872;2024-01-06T09:56:18;29.10;51.50
18575;DHT22;9417;16.484;102.872;2024-01-06T09:58:25;29.10;51.70
18575;DHT22;9417;16.484;102.872;2024-01-06T10:00:35;29.00;51.50
18575;DHT22;9417;16.484;102.872;2024-01-06T10:02:43;29.10;51.30
18575;DHT22;9417;16.484;102.872;2024-01-06T10:04:51;29.00;51.50
18575;DHT22;9417;16.484;102.872;2024-01-06T10:06:59;29.00;50.80
18575;DHT22;9417;16.484;102.872;2024-01-06T10:09:06;29.00;50.70
18575;DHT22;9417;16.484;102.872;2024-01-06T10:11:14;29.00;51.10
18575;DHT22;9417;16.484;102.872;2024-01-06T10:13:23;28.90;51.00
18575;DHT22;9417;16.484;102.872;2024-01-06T10:15:30;28.90;51.10
18575;DHT22;9417;16.484;102.872;2024-01-06T10:17:38;28.90;51.00
18575;DHT22;9417;16.484;102.872;2024-01-06T10:19:46;28.80;50.90
18575;DHT22;9417;16.484;102.872;2024-01-06T10:21:55;28.80;51.10
18575;DHT22;9417;16.484;102.872;2024-01-06T10:24:08;28.80;51.10
18575;DHT22;9417;16.484;102.872;2024-01-06T10:26:15;28.80;51.30
18575;DHT22;9417;16.484;102.872;2024-01-06T10:28:24;28.70;51.20
18575;DHT22;9417;16.484;102.872;2024-01-06T10:30:31;28.70;51.10
18575;DHT22;9417;16.484;102.872;2024-01-06T10:32:40;28.70;51.40
18575;DHT22;9417;16.484;102.872;2024-01-06T10:34:48;28.60;51.30
18575;DHT22;9417;16.484;102.872;2024-01-06T10:36:56;28.60;51.80
18575;DHT22;9417;16.484;102.872;2024-01-06T10:39:04;28.50;51.80
18575;DHT22;9417;16.484;102.872;2024-01-06T10:41:12;28.50;51.80
18575;DHT22;9417;16.484;102.872;2024-01-06T10:43:25;28.50;52.30
18575;DHT22;9417;16.484;102.872;2024-01-06T10:45:33;28.40;52.30
18575;DHT22;9417;16.484;102.872;2024-01-06T10:47:44;28.40;52.70
18575;DHT22;9417;16.484;102.872;2024-01-06T10:49:51;28.30;53.00
18575;DHT22;9417;16.484;102.872;2024-01-06T10:52:05;28.20;53.70
18575;DHT22;9417;16.484;102.872;2024-01-06T10:54:13;28.20;54.70
18575;DHT22;9417;16.484;102.872;2024-01-06T10:56:21;28.10;54.70
18575;DHT22;9417;16.484;102.872;2024-01-06T10:58:33;28.10;55.20
18575;DHT22;9417;16.484;102.872;2024-01-06T11:00:48;28.00;55.40
18575;DHT22;9417;16.484;102.872;2024-01-06T11:02:56;28.00;54.80
18575;DHT22;9417;16.484;102.872;2024-01-06T11:05:04;28.00;54.60
18575;DHT22;9417;16.484;102.872;2024-01-06T11:07:17;27.90;54.50
18575;DHT22;9417;16.484;102.872;2024-01-06T11:09:29;27.80;54.50
18575;DHT22;9417;16.484;102.872;2024-01-06T11:11:39;27.80;54.80
18575;DHT22;9417;16.484;102.872;2024-01-06T11:13:48;27.80;55.10
18575;DHT22;9417;16.484;102.872;2024-01-06T11:15:56;27.70;55.30
18575;DHT22;9417;16.484;102.872;2024-01-06T11:18:04;27.70;55.40
18575;DHT22;9417;16.484;102.872;2024-01-06T11:20:11;27.60;55.50
18575;DHT22;9417;16.484;102.872;2024-01-06T11:22:26;27.60;55.50
18575;DHT22;9417;16.484;102.872;2024-01-06T11:24:37;27.60;55.70
18575;DHT22;9417;16.484;102.872;2024-01-06T11:26:44;27.50;55.70
18575;DHT22;9417;16.484;102.872;2024-01-06T11:28:51;27.50;56.00
18575;DHT22;9417;16.484;102.872;2024-01-06T11:31:08;27.40;56.40
18575;DHT22;9417;16.484;102.872;2024-01-06T11:33:16;27.40;56.70
18575;DHT22;9417;16.484;102.872;2024-01-06T11:35:28;27.30;57.40
18575;DHT22;9417;16.484;102.872;2024-01-06T11:37:50;27.30;57.50
18575;DHT22;9417;16.484;102.872;2024-01-06T11:40:00;27.30;59.40
18575;DHT22;9417;16.484;102.872;2024-01-06T11:42:10;27.20;60.40
18575;DHT22;9417;16.484;102.872;2024-01-06T11:44:21;27.20;60.90
18575;DHT22;9417;16.484;102.872;2024-01-06T11:46:29;27.10;62.30
18575;DHT22;9417;16.484;102.872;2024-01-06T11:48:37;27.00;62.70
18575;DHT22;9417;16.484;102.872;2024-01-06T11:50:50;26.90;62.60
18575;DHT22;9417;16.484;102.872;2024-01-06T11:52:56;26.80;63.10
18575;DHT22;9417;16.484;102.872;2024-01-06T11:55:05;26.80;63.90
18575;DHT22;9417;16.484;102.872;2024-01-06T11:57:13;26.70;64.20
18575;DHT22;9417;16.484;102.872;2024-01-06T11:59:22;26.60;64.40
18575;DHT22;9417;16.484;102.872;2024-01-06T12:01:36;26.50;64.40
18575;DHT22;9417;16.484;102.872;2024-01-06T12:03:43;26.40;65.00
18575;DHT22;9417;16.484;102.872;2024-01-06T12:06:00;26.40;66.00
18575;DHT22;9417;16.484;102.872;2024-01-06T12:08:07;26.30;66.70
18575;DHT22;9417;16.484;102.872;2024-01-06T12:10:16;26.20;66.70
18575;DHT22;9417;16.484;102.872;2024-01-06T12:12:25;26.20;66.80
18575;DHT22;9417;16.484;102.872;2024-01-06T12:14:35;26.10;67.20
18575;DHT22;9417;16.484;102.872;2024-01-06T12:16:43;26.00;67.90
18575;DHT22;9417;16.484;102.872;2024-01-06T12:18:49;25.90;68.30
18575;DHT22;9417;16.484;102.872;2024-01-06T12:20:57;25.90;68.90
18575;DHT22;9417;16.484;102.872;2024-01-06T12:23:04;25.80;68.20
18575;DHT22;9417;16.484;102.872;2024-01-06T12:25:12;25.70;68.20
18575;DHT22;9417;16.484;102.872;2024-01-06T12:27:20;25.70;69.00
18575;DHT22;9417;16.484;102.872;2024-01-06T12:29:27;25.60;69.50
18575;DHT22;9417;16.484;102.872;2024-01-06T12:31:39;25.60;70.00
18575;DHT22;9417;16.484;102.872;2024-01-06T12:33:47;25.50;70.70
18575;DHT22;9417;16.484;102.872;2024-01-06T12:35:54;25.50;70.80
18575;DHT22;9417;16.484;102.872;2024-01-06T12:38:05;25.50;70.90
18575;DHT22;9417;16.484;102.872;2024-01-06T12:40:13;25.50;71.10
18575;DHT22;9417;16.484;102.872;2024-01-06T12:42:21;25.40;71.30
18575;DHT22;9417;16.484;102.872;2024-01-06T12:44:28;25.30;71.70
18575;DHT22;9417;16.484;102.872;2024-01-06T12:46:39;25.30;71.70
18575;DHT22;9417;16.484;102.872;2024-01-06T12:48:47;25.30;72.40
18575;DHT22;9417;16.484;102.872;2024-01-06T12:50:54;25.20;72.60
18575;DHT22;9417;16.484;102.872;2024-01-06T12:53:01;25.20;72.70
18575;DHT22;9417;16.484;102.872;2024-01-06T12:55:09;25.20;72.50
18575;DHT22;9417;16.484;102.872;2024-01-06T12:57:16;25.20;72.90
18575;DHT22;9417;16.484;102.872;2024-01-06T12:59:23;25.10;73.10
18575;DHT22;9417;16.484;102.872;2024-01-06T13:01:31;25.10;73.10
18575;DHT22;9417;16.484;102.872;2024-01-06T13:03:40;25.10;72.90
18575;DHT22;9417;16.484;102.872;2024-01-06T13:05:46;25.10;73.20
18575;DHT22;9417;16.484;102.872;2024-01-06T13:07:53;25.10;73.30
18575;DHT22;9417;16.484;102.872;2024-01-06T13:10:02;25.00;73.80
18575;DHT22;9417;16.484;102.872;2024-01-06T13:12:10;24.90;74.20
18575;DHT22;9417;16.484;102.872;2024-01-06T13:14:17;24.90;74.40
18575;DHT22;9417;16.484;102.872;2024-01-06T13:16:23;24.90;74.20